sensor_id;sensor_type;location;lat;lon;timestamp;temperature;humidity
11126;DHT22;5617;54.046;10.676;2023-05-19T00:01:55;6.80;97.40
11126;DHT22;5617;54.046;10.676;2023-05-19T00:04:03;6.80;97.40
11126;DHT22;5617;54.046;10.676;2023-05-19T00:06:11;6.80;97.50
11126;DHT22;5617;54.046;10.676;2023-05-19T00:08:19;6.80;97.50
11126;DHT22;5617;54.046;10.676;2023-05-19T00:10:29;6.70;97.70
11126;DHT22;5617;54.046;10.676;2023-05-19T00:12:39;6.60;97.80
11126;DHT22;5617;54.046;10.676;2023-05-19T00:14:47;6.50;97.80
11126;DHT22;5617;54.046;10.676;2023-05-19T00:16:57;6.50;97.90
11126;DHT22;5617;54.046;10.676;2023-05-19T00:19:07;6.40;98.00
11126;DHT22;5617;54.046;10.676;2023-05-19T00:21:15;6.40;98.10
11126;DHT22;5617;54.046;10.676;2023-05-19T00:23:23;6.40;98.10
11126;DHT22;5617;54.046;10.676;2023-05-19T00:25:30;6.40;98.40
11126;DHT22;5617;54.046;10.676;2023-05-19T00:27:38;6.40;98.10
11126;DHT22;5617;54.046;10.676;2023-05-19T00:29:45;6.40;98.10
11126;DHT22;5617;54.046;10.676;2023-05-19T00:31:53;6.40;98.20
11126;DHT22;5617;54.046;10.676;2023-05-19T00:34:02;6.30;98.30
11126;DHT22;5617;54.046;10.676;2023-05-19T00:36:10;6.20;98.70
11126;DHT22;5617;54.046;10.676;2023-05-19T00:38:18;6.20;98.40
11126;DHT22;5617;54.046;10.676;2023-05-19T00:40:26;6.20;98.40
11126;DHT22;5617;54.046;10.676;2023-05-19T00:42:35;6.20;98.40
11126;DHT22;5617;54.046;10.676;2023-05-19T00:44:43;6.30;98.40
11126;DHT22;5617;54.046;10.676;2023-05-19T00:46:50;6.30;98.40
11126;DHT22;5617;54.046;10.676;2023-05-19T00:48:58;6.30;98.50
11126;DHT22;5617;54.046;10.676;2023-05-19T00:51:07;6.30;98.50
11126;DHT22;5617;54.046;10.676;2023-05-19T00:53:16;6.40;98.60
11126;DHT22;5617;54.046;10.676;2023-05-19T00:55:27;6.30;98.60
11126;DHT22;5617;54.046;10.676;2023-05-19T00:57:36;6.40;98.70
11126;DHT22;5617;54.046;10.676;2023-05-19T00:59:44;6.40;98.70
11126;DHT22;5617;54.046;10.676;2023-05-19T01:01:52;6.40;98.80
11126;DHT22;5617;54.046;10.676;2023-05-19T01:04:00;6.40;98.80
11126;DHT22;5617;54.046;10.676;2023-05-19T01:06:11;6.40;98.90
11126;DHT22;5617;54.046;10.676;2023-05-19T01:08:19;6.30;99.00
11126;DHT22;5617;54.046;10.676;2023-05-19T01:10:27;6.30;99.00
11126;DHT22;5617;54.046;10.676;2023-05-19T01:12:39;6.30;99.10
11126;DHT22;5617;54.046;10.676;2023-05-19T01:14:47;6.30;99.10
11126;DHT22;5617;54.046;10.676;2023-05-19T01:16:58;6.40;99.10
11126;DHT22;5617;54.046;10.676;2023-05-19T01:19:23;6.40;99.10
11126;DHT22;5617;54.046;10.676;2023-05-19T01:22:11;6.50;99.10
11126;DHT22;5617;54.046;10.676;2023-05-19T01:24:38;6.50;99.20
11126;DHT22;5617;54.046;10.676;2023-05-19T01:27:08;6.50;99.40
11126;DHT22;5617;54.046;10.676;2023-05-19T01:29:33;6.50;99.10
11126;DHT22;5617;54.046;10.676;2023-05-19T01:31:48;6.50;99.10
11126;DHT22;5617;54.046;10.676;2023-05-19T01:33:56;6.50;99.10
11126;DHT22;5617;54.046;10.676;2023-05-19T01:36:06;6.40;99.20
11126;DHT22;5617;54.046;10.676;2023-05-19T01:38:16;6.30;99.50
11126;DHT22;5617;54.046;10.676;2023-05-19T01:40:26;6.20;99.70
11126;DHT22;5617;54.046;10.676;2023-05-19T01:42:34;6.20;99.80
11126;DHT22;5617;54.046;10.676;2023-05-19T01:44:45;6.20;99.80
11126;DHT22;5617;54.046;10.676;2023-05-19T01:46:55;6.20;99.80
11126;DHT22;5617;54.046;10.676;2023-05-19T01:49:03;6.30;99.80
11126;DHT22;5617;54.046;10.676;2023-05-19T01:51:12;6.30;99.80
11126;DHT22;5617;54.046;10.676;2023-05-19T01:53:19;6.30;99.80
11126;DHT22;5617;54.046;10.676;2023-05-19T01:55:28;6.30;99.90
11126;DHT22;5617;54.046;10.676;2023-05-19T01:57:44;6.20;99.90
11126;DHT22;5617;54.046;10.676;2023-05-19T01:59:58;6.20;99.90
11126;DHT22;5617;54.046;10.676;2023-05-19T02:02:22;6.20;99.90
11126;DHT22;5617;54.046;10.676;2023-05-19T02:04:37;6.30;99.90
11126;DHT22;5617;54.046;10.676;2023-05-19T02:06:54;6.30;99.90
11126;DHT22;5617;54.046;10.676;2023-05-19T02:09:11;6.40;99.90
11126;DHT22;5617;54.046;10.676;2023-05-19T02:11:24;6.40;99.90
11126;DHT22;5617;54.046;10.676;2023-05-19T02:13:36;6.30;99.90
11126;DHT22;5617;54.046;10.676;2023-05-19T02:15:47;6.20;99.90
11126;DHT22;5617;54.046;10.676;2023-05-19T02:17:58;6.20;99.90
11126;DHT22;5617;54.046;10.676;2023-05-19T02:20:10;6.30;99.90
11126;DHT22;5617;54.046;10.676;2023-05-19T02:22:18;6.30;99.90
11126;DHT22;5617;54.046;10.676;2023-05-19T02:24:25;6.20;99.90
11126;DHT22;5617;54.046;10.676;2023-05-19T02:26:33;6.10;99.90
11126;DHT22;5617;54.046;10.676;2023-05-19T02:28:41;6.10;99.90
11126;DHT22;5617;54.046;10.676;2023-05-19T02:30:48;6.10;99.90
11126;DHT22;5617;54.046;10.676;2023-05-19T02:32:58;6.10;99.90
11126;DHT22;5617;54.046;10.676;2023-05-19T02:35:06;6.10;99.90
11126;DHT22;5617;54.046;10.676;2023-05-19T02:37:14;6.20;99.90
11126;DHT22;5617;54.046;10.676;2023-05-19T02:39:22;6.10;99.90
11126;DHT22;5617;54.046;10.676;2023-05-19T02:41:30;6.10;99.90
11126;DHT22;5617;54.046;10.676;2023-05-19T02:43:37;6.00;99.90
11126;DHT22;5617;54.046;10.676;2023-05-19T02:45:45;5.90;99.90
11126;DHT22;5617;54.046;10.676;2023-05-19T02:47:52;5.80;99.90
11126;DHT22;5617;54.046;10.676;2023-05-19T02:50:01;5.90;99.90
11126;DHT22;5617;54.046;10.676;2023-05-19T02:52:09;5.90;99.90
11126;DHT22;5617;54.046;10.676;2023-05-19T02:54:17;5.80;99.90
11126;DHT22;5617;54.046;10.676;2023-05-19T02:56:25;5.90;99.90
11126;DHT22;5617;54.046;10.676;2023-05-19T02:58:33;5.90;99.90
11126;DHT22;5617;54.046;10.676;2023-05-19T03:00:40;5.90;99.90
11126;DHT22;5617;54.046;10.676;2023-05-19T03:02:50;6.00;99.90
11126;DHT22;5617;54.046;10.676;2023-05-19T03:04:58;6.00;99.90
11126;DHT22;5617;54.046;10.676;2023-05-19T03:07:08;5.90;99.90
11126;DHT22;5617;54.046;10.676;2023-05-19T03:09:16;5.90;99.90
11126;DHT22;5617;54.046;10.676;2023-05-19T03:11:23;5.80;99.90
11126;DHT22;5617;54.046;10.676;2023-05-19T03:13:31;5.80;99.90
11126;DHT22;5617;54.046;10.676;2023-05-19T03:15:40;5.80;99.90
11126;DHT22;5617;54.046;10.676;2023-05-19T03:17:53;5.80;99.90
11126;DHT22;5617;54.046;10.676;2023-05-19T03:20:01;5.90;99.90
11126;DHT22;5617;54.046;10.676;2023-05-19T03:22:11;5.90;99.90
11126;DHT22;5617;54.046;10.676;2023-05-19T03:24:19;6.00;99.90
11126;DHT22;5617;54.046;10.676;2023-05-19T03:26:26;6.00;99.90
11126;DHT22;5617;54.046;10.676;2023-05-19T03:28:35;6.00;99.90
11126;DHT22;5617;54.046;10.676;2023-05-19T03:30:42;6.10;99.90
11126;DHT22;5617;54.046;10.676;2023-05-19T03:32:50;6.10;99.90
11126;DHT22;5617;54.046;10.676;2023-05-19T03:34:58;6.20;99.90
11126;DHT22;5617;54.046;10.676;2023-05-19T03:37:06;6.20;99.90
11126;DHT22;5617;54.046;10.676;2023-05-19T03:39:17;6.20;99.90
11126;DHT22;5617;54.046;10.676;2023-05-19T03:41:24;6.30;99.90
11126;DHT22;5617;54.046;10.676;2023-05-19T03:43:32;6.30;99.90
11126;DHT22;5617;54.046;10.676;2023-05-19T03:45:40;6.40;99.90
11126;DHT22;5617;54.046;10.676;2023-05-19T03:47:47;6.40;99.90
11126;DHT22;5617;54.046;10.676;2023-05-19T03:49:55;6.50;99.90
11126;DHT22;5617;54.046;10.676;2023-05-19T03:52:03;6.50;99.90
11126;DHT22;5617;54.046;10.676;2023-05-19T03:54:10;6.60;99.90
11126;DHT22;5617;54.046;10.676;2023-05-19T03:56:19;6.60;99.90
11126;DHT22;5617;54.046;10.676;2023-05-19T03:58:30;6.60;99.90
11126;DHT22;5617;54.046;10.676;2023-05-19T04:00:37;6.70;99.90
11126;DHT22;5617;54.046;10.676;2023-05-19T04:02:45;6.70;99.90
11126;DHT22;5617;54.046;10.676;2023-05-19T04:04:53;6.70;99.90
11126;DHT22;5617;54.046;10.676;2023-05-19T04:07:01;6.80;99.90
11126;DHT22;5617;54.046;10.676;2023-05-19T04:09:11;6.90;99.90
11126;DHT22;5617;54.046;10.676;2023-05-19T04:11:21;6.90;99.90
11126;DHT22;5617;54.046;10.676;2023-05-19T04:13:28;7.00;99.90
11126;DHT22;5617;54.046;10.676;2023-05-19T04:15:36;7.10;99.90
11126;DHT22;5617;54.046;10.676;2023-05-19T04:17:43;7.10;99.90
11126;DHT22;5617;54.046;10.676;2023-05-19T04:19:51;7.20;99.90
11126;DHT22;5617;54.046;10.676;2023-05-19T04:21:59;7.20;99.90
11126;DHT22;5617;54.046;10.676;2023-05-19T04:24:06;7.30;99.90
11126;DHT22;5617;54.046;10.676;2023-05-19T04:26:14;7.50;99.90
11126;DHT22;5617;54.046;10.676;2023-05-19T04:28:24;7.70;99.90
11126;DHT22;5617;54.046;10.676;2023-05-19T04:30:32;8.00;99.90
11126;DHT22;5617;54.046;10.676;2023-05-19T04:32:39;8.30;99.90
11126;DHT22;5617;54.046;10.676;2023-05-19T04:34:47;8.50;99.90
11126;DHT22;5617;54.046;10.676;2023-05-19T04:36:54;8.70;99.90
11126;DHT22;5617;54.046;10.676;2023-05-19T04:39:03;8.80;99.90
11126;DHT22;5617;54.046;10.676;2023-05-19T04:41:15;8.90;99.90
11126;DHT22;5617;54.046;10.676;2023-05-19T04:43:24;8.90;99.90
11126;DHT22;5617;54.046;10.676;2023-05-19T04:45:32;8.90;99.90
11126;DHT22;5617;54.046;10.676;2023-05-19T04:47:41;8.90;99.90
11126;DHT22;5617;54.046;10.676;2023-05-19T04:49:48;8.90;99.90
11126;DHT22;5617;54.046;10.676;2023-05-19T04:52:00;8.90;99.90
11126;DHT22;5617;54.046;10.676;2023-05-19T04:54:08;9.00;99.90
11126;DHT22;5617;54.046;10.676;2023-05-19T04:56:16;9.10;99.90
11126;DHT22;5617;54.046;10.676;2023-05-19T04:58:25;9.10;99.90
11126;DHT22;5617;54.046;10.676;2023-05-19T05:00:33;9.10;99.90
11126;DHT22;5617;54.046;10.676;2023-05-19T05:02:41;9.20;99.90
11126;DHT22;5617;54.046;10.676;2023-05-19T05:04:49;9.30;99.90
11126;DHT22;5617;54.046;10.676;2023-05-19T05:06:59;9.40;99.90
11126;DHT22;5617;54.046;10.676;2023-05-19T05:09:07;9.50;99.90
11126;DHT22;5617;54.046;10.676;2023-05-19T05:11:17;9.50;99.90
11126;DHT22;5617;54.046;10.676;2023-05-19T05:13:27;9.60;99.90
11126;DHT22;5617;54.046;10.676;2023-05-19T05:15:35;9.70;99.90
11126;DHT22;5617;54.046;10.676;2023-05-19T05:17:43;9.70;99.90
11126;DHT22;5617;54.046;10.676;2023-05-19T05:19:51;9.80;99.90
11126;DHT22;5617;54.046;10.676;2023-05-19T05:22:00;9.90;99.90
11126;DHT22;5617;54.046;10.676;2023-05-19T05:24:09;10.00;99.90
11126;DHT22;5617;54.046;10.676;2023-05-19T05:26:18;10.20;99.90
11126;DHT22;5617;54.046;10.676;2023-05-19T05:28:30;10.20;99.90
11126;DHT22;5617;54.046;10.676;2023-05-19T05:30:38;10.30;99.90
11126;DHT22;5617;54.046;10.676;2023-05-19T05:32:46;10.40;99.90
11126;DHT22;5617;54.046;10.676;2023-05-19T05:34:54;10.40;99.90
11126;DHT22;5617;54.046;10.676;2023-05-19T05:37:01;10.50;99.90
11126;DHT22;5617;54.046;10.676;2023-05-19T05:39:09;10.60;99.90
11126;DHT22;5617;54.046;10.676;2023-05-19T05:41:17;10.70;99.90
11126;DHT22;5617;54.046;10.676;2023-05-19T05:43:25;10.80;99.90
11126;DHT22;5617;54.046;10.676;2023-05-19T05:45:33;10.80;99.90
11126;DHT22;5617;54.046;10.676;2023-05-19T05:47:41;10.90;99.90
11126;DHT22;5617;54.046;10.676;2023-05-19T05:49:50;11.00;99.90
11126;DHT22;5617;54.046;10.676;2023-05-19T05:51:59;11.20;99.90
11126;DHT22;5617;54.046;10.676;2023-05-19T05:54:12;11.30;99.90
11126;DHT22;5617;54.046;10.676;2023-05-19T05:56:22;11.40;99.90
11126;DHT22;5617;54.046;10.676;2023-05-19T05:58:30;11.50;99.90
11126;DHT22;5617;54.046;10.676;2023-05-19T06:00:39;11.70;99.90
11126;DHT22;5617;54.046;10.676;2023-05-19T06:02:49;11.90;99.90
11126;DHT22;5617;54.046;10.676;2023-05-19T06:04:57;12.10;99.90
11126;DHT22;5617;54.046;10.676;2023-05-19T06:07:04;12.20;99.90
11126;DHT22;5617;54.046;10.676;2023-05-19T06:09:14;12.30;99.90
11126;DHT22;5617;54.046;10.676;2023-05-19T06:11:23;12.30;99.90
11126;DHT22;5617;54.046;10.676;2023-05-19T06:13:30;12.40;99.90
11126;DHT22;5617;54.046;10.676;2023-05-19T06:15:39;12.50;99.90
11126;DHT22;5617;54.046;10.676;2023-05-19T06:17:47;12.50;99.90
11126;DHT22;5617;54.046;10.676;2023-05-19T06:19:55;12.50;99.90
11126;DHT22;5617;54.046;10.676;2023-05-19T06:22:03;12.50;99.90
11126;DHT22;5617;54.046;10.676;2023-05-19T06:24:10;12.60;99.90
11126;DHT22;5617;54.046;10.676;2023-05-19T06:26:18;12.70;99.90
11126;DHT22;5617;54.046;10.676;2023-05-19T06:28:26;12.70;99.90
11126;DHT22;5617;54.046;10.676;2023-05-19T06:30:34;12.80;99.90
11126;DHT22;5617;54.046;10.676;2023-05-19T06:32:43;12.80;99.90
11126;DHT22;5617;54.046;10.676;2023-05-19T06:34:51;12.90;99.90
11126;DHT22;5617;54.046;10.676;2023-05-19T06:37:00;13.00;99.90
11126;DHT22;5617;54.046;10.676;2023-05-19T06:39:11;13.00;99.90
11126;DHT22;5617;54.046;10.676;2023-05-19T06:41:18;13.00;99.90
11126;DHT22;5617;54.046;10.676;2023-05-19T06:43:26;13.10;99.90
11126;DHT22;5617;54.046;10.676;2023-05-19T06:45:35;13.10;99.90
11126;DHT22;5617;54.046;10.676;2023-05-19T06:47:44;13.20;99.90
11126;DHT22;5617;54.046;10.676;2023-05-19T06:49:52;13.30;99.90
11126;DHT22;5617;54.046;10.676;2023-05-19T06:52:01;13.40;99.90
11126;DHT22;5617;54.046;10.676;2023-05-19T06:54:08;13.50;99.90
11126;DHT22;5617;54.046;10.676;2023-05-19T06:56:18;13.60;99.90
11126;DHT22;5617;54.046;10.676;2023-05-19T06:58:28;13.70;99.90
11126;DHT22;5617;54.046;10.676;2023-05-19T07:00:35;13.80;99.60
11126;DHT22;5617;54.046;10.676;2023-05-19T07:02:44;13.90;99.60
11126;DHT22;5617;54.046;10.676;2023-05-19T07:04:53;14.00;99.40
11126;DHT22;5617;54.046;10.676;2023-05-19T07:07:03;14.10;98.80
11126;DHT22;5617;54.046;10.676;2023-05-19T07:09:11;14.10;97.90
11126;DHT22;5617;54.046;10.676;2023-05-19T07:11:19;14.20;98.20
11126;DHT22;5617;54.046;10.676;2023-05-19T07:13:28;14.20;98.10
11126;DHT22;5617;54.046;10.676;2023-05-19T07:15:35;14.20;97.30
11126;DHT22;5617;54.046;10.676;2023-05-19T07:17:44;14.30;97.40
11126;DHT22;5617;54.046;10.676;2023-05-19T07:19:52;14.40;97.10
11126;DHT22;5617;54.046;10.676;2023-05-19T07:22:00;14.50;96.80
11126;DHT22;5617;54.046;10.676;2023-05-19T07:24:08;14.50;96.50
11126;DHT22;5617;54.046;10.676;2023-05-19T07:26:15;14.40;96.30
11126;DHT22;5617;54.046;10.676;2023-05-19T07:28:23;14.50;96.10
11126;DHT22;5617;54.046;10.676;2023-05-19T07:30:31;14.50;95.70
11126;DHT22;5617;54.046;10.676;2023-05-19T07:32:39;14.50;95.30
11126;DHT22;5617;54.046;10.676;2023-05-19T07:34:48;14.50;95.50
11126;DHT22;5617;54.046;10.676;2023-05-19T07:36:56;14.50;95.40
11126;DHT22;5617;54.046;10.676;2023-05-19T07:39:04;14.60;94.80
11126;DHT22;5617;54.046;10.676;2023-05-19T07:41:13;14.50;94.80
11126;DHT22;5617;54.046;10.676;2023-05-19T07:43:22;14.50;94.60
11126;DHT22;5617;54.046;10.676;2023-05-19T07:45:29;14.50;94.40
11126;DHT22;5617;54.046;10.676;2023-05-19T07:47:37;14.60;94.50
11126;DHT22;5617;54.046;10.676;2023-05-19T07:49:45;14.80;94.30
11126;DHT22;5617;54.046;10.676;2023-05-19T07:51:56;14.80;93.90
11126;DHT22;5617;54.046;10.676;2023-05-19T07:54:03;14.90;93.90
11126;DHT22;5617;54.046;10.676;2023-05-19T07:56:11;15.00;93.70
11126;DHT22;5617;54.046;10.676;2023-05-19T07:58:19;15.10;93.50
11126;DHT22;5617;54.046;10.676;2023-05-19T08:00:27;15.00;93.00
11126;DHT22;5617;54.046;10.676;2023-05-19T08:02:35;15.00;93.10
11126;DHT22;5617;54.046;10.676;2023-05-19T08:04:43;15.20;92.90
11126;DHT22;5617;54.046;10.676;2023-05-19T08:06:51;15.30;92.90
11126;DHT22;5617;54.046;10.676;2023-05-19T08:09:02;15.60;93.10
11126;DHT22;5617;54.046;10.676;2023-05-19T08:11:10;15.90;92.80
11126;DHT22;5617;54.046;10.676;2023-05-19T08:13:18;16.00;92.80
11126;DHT22;5617;54.046;10.676;2023-05-19T08:15:25;16.00;92.50
11126;DHT22;5617;54.046;10.676;2023-05-19T08:17:33;15.90;92.30
11126;DHT22;5617;54.046;10.676;2023-05-19T08:19:41;15.90;92.30
11126;DHT22;5617;54.046;10.676;2023-05-19T08:21:48;15.90;92.40
11126;DHT22;5617;54.046;10.676;2023-05-19T08:23:56;15.90;92.30
11126;DHT22;5617;54.046;10.676;2023-05-19T08:26:05;15.80;92.30
11126;DHT22;5617;54.046;10.676;2023-05-19T08:28:13;15.80;91.80
11126;DHT22;5617;54.046;10.676;2023-05-19T08:30:21;15.60;91.90
11126;DHT22;5617;54.046;10.676;2023-05-19T08:32:30;15.60;92.10
11126;DHT22;5617;54.046;10.676;2023-05-19T08:34:39;15.50;92.00
11126;DHT22;5617;54.046;10.676;2023-05-19T08:36:47;15.60;92.30
11126;DHT22;5617;54.046;10.676;2023-05-19T08:38:55;15.70;92.30
11126;DHT22;5617;54.046;10.676;2023-05-19T08:41:04;15.80;92.20
11126;DHT22;5617;54.046;10.676;2023-05-19T08:43:12;15.70;92.00
11126;DHT22;5617;54.046;10.676;2023-05-19T08:45:20;15.80;92.20
11126;DHT22;5617;54.046;10.676;2023-05-19T08:47:27;16.00;92.30
11126;DHT22;5617;54.046;10.676;2023-05-19T08:49:41;16.10;92.30
11126;DHT22;5617;54.046;10.676;2023-05-19T08:51:54;16.30;92.30
11126;DHT22;5617;54.046;10.676;2023-05-19T08:54:11;16.40;92.20
11126;DHT22;5617;54.046;10.676;2023-05-19T08:56:23;16.50;92.20
11126;DHT22;5617;54.046;10.676;2023-05-19T08:58:32;16.70;92.10
11126;DHT22;5617;54.046;10.676;2023-05-19T09:00:40;16.80;92.10
11126;DHT22;5617;54.046;10.676;2023-05-19T09:02:48;16.90;92.30
11126;DHT22;5617;54.046;10.676;2023-05-19T09:05:12;17.10;92.30
11126;DHT22;5617;54.046;10.676;2023-05-19T09:07:22;17.30;92.50
11126;DHT22;5617;54.046;10.676;2023-05-19T09:09:30;17.30;92.30
11126;DHT22;5617;54.046;10.676;2023-05-19T09:11:40;17.50;92.40
11126;DHT22;5617;54.046;10.676;2023-05-19T09:13:51;17.50;91.90
11126;DHT22;5617;54.046;10.676;2023-05-19T09:15:59;17.40;92.00
11126;DHT22;5617;54.046;10.676;2023-05-19T09:18:08;17.50;92.10
11126;DHT22;5617;54.046;10.676;2023-05-19T09:20:16;17.70;92.00
11126;DHT22;5617;54.046;10.676;2023-05-19T09:22:23;17.80;91.80
11126;DHT22;5617;54.046;10.676;2023-05-19T09:24:33;17.90;91.80
11126;DHT22;5617;54.046;10.676;2023-05-19T09:26:42;18.10;91.80
11126;DHT22;5617;54.046;10.676;2023-05-19T09:28:50;18.20;91.80
11126;DHT22;5617;54.046;10.676;2023-05-19T09:30:58;18.40;91.60
11126;DHT22;5617;54.046;10.676;2023-05-19T09:33:06;18.50;91.40
11126;DHT22;5617;54.046;10.676;2023-05-19T09:35:15;18.40;91.20
11126;DHT22;5617;54.046;10.676;2023-05-19T09:37:26;18.10;91.20
11126;DHT22;5617;54.046;10.676;2023-05-19T09:39:34;18.10;91.20
11126;DHT22;5617;54.046;10.676;2023-05-19T09:41:44;18.20;91.30
11126;DHT22;5617;54.046;10.676;2023-05-19T09:43:53;18.40;91.60
11126;DHT22;5617;54.046;10.676;2023-05-19T09:46:03;18.30;91.20
11126;DHT22;5617;54.046;10.676;2023-05-19T09:48:10;18.10;91.60
11126;DHT22;5617;54.046;10.676;2023-05-19T09:50:21;18.50;91.70
11126;DHT22;5617;54.046;10.676;2023-05-19T09:52:29;18.70;91.70
11126;DHT22;5617;54.046;10.676;2023-05-19T09:54:39;18.60;91.10
11126;DHT22;5617;54.046;10.676;2023-05-19T09:56:56;18.70;91.20
11126;DHT22;5617;54.046;10.676;2023-05-19T09:59:05;18.90;90.90
11126;DHT22;5617;54.046;10.676;2023-05-19T10:01:14;18.90;90.90
11126;DHT22;5617;54.046;10.676;2023-05-19T10:03:22;19.20;90.90
11126;DHT22;5617;54.046;10.676;2023-05-19T10:05:30;19.40;90.80
11126;DHT22;5617;54.046;10.676;2023-05-19T10:07:39;19.70;90.70
11126;DHT22;5617;54.046;10.676;2023-05-19T10:09:47;19.70;90.10
11126;DHT22;5617;54.046;10.676;2023-05-19T10:11:58;19.70;90.20
11126;DHT22;5617;54.046;10.676;2023-05-19T10:14:06;19.80;90.00
11126;DHT22;5617;54.046;10.676;2023-05-19T10:16:14;19.90;88.80
11126;DHT22;5617;54.046;10.676;2023-05-19T10:18:24;20.00;88.50
11126;DHT22;5617;54.046;10.676;2023-05-19T10:20:33;20.20;87.50
11126;DHT22;5617;54.046;10.676;2023-05-19T10:22:42;20.30;85.90
11126;DHT22;5617;54.046;10.676;2023-05-19T10:24:50;20.20;85.60
11126;DHT22;5617;54.046;10.676;2023-05-19T10:27:03;20.10;86.50
11126;DHT22;5617;54.046;10.676;2023-05-19T10:29:15;20.10;86.70
11126;DHT22;5617;54.046;10.676;2023-05-19T10:31:25;20.20;86.90
11126;DHT22;5617;54.046;10.676;2023-05-19T10:33:40;20.30;87.20
11126;DHT22;5617;54.046;10.676;2023-05-19T10:36:23;20.30;86.40
11126;DHT22;5617;54.046;10.676;2023-05-19T10:38:41;20.20;86.00
11126;DHT22;5617;54.046;10.676;2023-05-19T10:40:58;20.20;85.30
11126;DHT22;5617;54.046;10.676;2023-05-19T10:43:16;20.10;85.40
11126;DHT22;5617;54.046;10.676;2023-05-19T10:45:27;20.20;85.10
11126;DHT22;5617;54.046;10.676;2023-05-19T10:47:39;20.20;85.80
11126;DHT22;5617;54.046;10.676;2023-05-19T10:49:48;20.40;85.70
11126;DHT22;5617;54.046;10.676;2023-05-19T10:51:56;20.60;85.50
11126;DHT22;5617;54.046;10.676;2023-05-19T10:54:07;20.60;85.30
11126;DHT22;5617;54.046;10.676;2023-05-19T10:56:28;20.50;85.00
11126;DHT22;5617;54.046;10.676;2023-05-19T10:58:49;20.30;85.60
11126;DHT22;5617;54.046;10.676;2023-05-19T11:00:59;20.20;84.70
11126;DHT22;5617;54.046;10.676;2023-05-19T11:03:13;20.20;85.50
11126;DHT22;5617;54.046;10.676;2023-05-19T11:05:28;20.30;85.60
11126;DHT22;5617;54.046;10.676;2023-05-19T11:07:36;20.50;85.30
11126;DHT22;5617;54.046;10.676;2023-05-19T11:09:48;20.50;84.40
11126;DHT22;5617;54.046;10.676;2023-05-19T11:12:02;20.30;84.70
11126;DHT22;5617;54.046;10.676;2023-05-19T11:14:14;20.30;85.00
11126;DHT22;5617;54.046;10.676;2023-05-19T11:16:30;20.50;85.10
11126;DHT22;5617;54.046;10.676;2023-05-19T11:18:38;20.50;84.80
11126;DHT22;5617;54.046;10.676;2023-05-19T11:20:54;20.50;84.80
11126;DHT22;5617;54.046;10.676;2023-05-19T11:23:05;20.40;84.90
11126;DHT22;5617;54.046;10.676;2023-05-19T11:25:17;20.40;84.70
11126;DHT22;5617;54.046;10.676;2023-05-19T11:27:45;20.40;84.40
11126;DHT22;5617;54.046;10.676;2023-05-19T11:29:55;20.30;84.10
11126;DHT22;5617;54.046;10.676;2023-05-19T11:32:05;20.40;84.20
11126;DHT22;5617;54.046;10.676;2023-05-19T11:34:14;20.40;84.10
11126;DHT22;5617;54.046;10.676;2023-05-19T11:36:23;20.40;84.30
11126;DHT22;5617;54.046;10.676;2023-05-19T11:38:31;20.30;84.00
11126;DHT22;5617;54.046;10.676;2023-05-19T11:40:40;20.30;83.90
11126;DHT22;5617;54.046;10.676;2023-05-19T11:42:48;20.10;83.50
11126;DHT22;5617;54.046;10.676;2023-05-19T11:44:57;20.20;84.20
11126;DHT22;5617;54.046;10.676;2023-05-19T11:47:05;20.40;84.40
11126;DHT22;5617;54.046;10.676;2023-05-19T11:49:14;20.40;84.20
11126;DHT22;5617;54.046;10.676;2023-05-19T11:51:22;20.50;84.60
11126;DHT22;5617;54.046;10.676;2023-05-19T11:53:30;20.60;84.30
11126;DHT22;5617;54.046;10.676;2023-05-19T11:55:41;20.70;84.00
11126;DHT22;5617;54.046;10.676;2023-05-19T11:57:56;20.70;83.90
11126;DHT22;5617;54.046;10.676;2023-05-19T12:00:13;20.80;84.30
11126;DHT22;5617;54.046;10.676;2023-05-19T12:02:23;20.70;84.10
11126;DHT22;5617;54.046;10.676;2023-05-19T12:04:33;20.50;83.80
11126;DHT22;5617;54.046;10.676;2023-05-19T12:06:42;20.40;83.90
11126;DHT22;5617;54.046;10.676;2023-05-19T12:08:51;20.50;84.40
11126;DHT22;5617;54.046;10.676;2023-05-19T12:10:59;20.30;84.30
11126;DHT22;5617;54.046;10.676;2023-05-19T12:13:07;20.30;84.00
11126;DHT22;5617;54.046;10.676;2023-05-19T12:15:19;20.30;84.10
11126;DHT22;5617;54.046;10.676;2023-05-19T12:17:27;20.20;84.00
11126;DHT22;5617;54.046;10.676;2023-05-19T12:19:35;20.10;84.00
11126;DHT22;5617;54.046;10.676;2023-05-19T12:21:42;20.10;83.70
11126;DHT22;5617;54.046;10.676;2023-05-19T12:23:50;20.20;83.60
11126;DHT22;5617;54.046;10.676;2023-05-19T12:25:58;20.30;83.50
11126;DHT22;5617;54.046;10.676;2023-05-19T12:28:06;20.40;83.80
11126;DHT22;5617;54.046;10.676;2023-05-19T12:30:15;20.50;83.30
11126;DHT22;5617;54.046;10.676;2023-05-19T12:32:26;20.50;82.80
11126;DHT22;5617;54.046;10.676;2023-05-19T12:34:35;20.40;83.00
11126;DHT22;5617;54.046;10.676;2023-05-19T12:36:43;20.30;82.70
11126;DHT22;5617;54.046;10.676;2023-05-19T12:38:53;20.50;82.50
11126;DHT22;5617;54.046;10.676;2023-05-19T12:41:01;20.70;82.40
11126;DHT22;5617;54.046;10.676;2023-05-19T12:43:18;20.90;81.60
11126;DHT22;5617;54.046;10.676;2023-05-19T12:45:26;21.10;81.50
11126;DHT22;5617;54.046;10.676;2023-05-19T12:47:36;21.20;80.50
11126;DHT22;5617;54.046;10.676;2023-05-19T12:49:53;21.00;79.40
11126;DHT22;5617;54.046;10.676;2023-05-19T12:52:02;20.80;80.10
11126;DHT22;5617;54.046;10.676;2023-05-19T12:54:18;20.90;79.50
11126;DHT22;5617;54.046;10.676;2023-05-19T12:56:26;20.80;79.50
11126;DHT22;5617;54.046;10.676;2023-05-19T12:58:33;20.90;79.50
11126;DHT22;5617;54.046;10.676;2023-05-19T13:00:42;21.10;79.70
11126;DHT22;5617;54.046;10.676;2023-05-19T13:02:56;21.30;79.40
11126;DHT22;5617;54.046;10.676;2023-05-19T13:05:05;21.40;78.40
11126;DHT22;5617;54.046;10.676;2023-05-19T13:07:12;21.60;78.40
11126;DHT22;5617;54.046;10.676;2023-05-19T13:09:21;21.90;78.10
11126;DHT22;5617;54.046;10.676;2023-05-19T13:11:30;22.00;78.70
11126;DHT22;5617;54.046;10.676;2023-05-19T13:13:37;22.30;77.30
11126;DHT22;5617;54.046;10.676;2023-05-19T13:15:46;22.50;77.50
11126;DHT22;5617;54.046;10.676;2023-05-19T13:17:56;22.70;77.10
11126;DHT22;5617;54.046;10.676;2023-05-19T13:20:05;22.70;74.00
11126;DHT22;5617;54.046;10.676;2023-05-19T13:22:13;22.50;73.20
11126;DHT22;5617;54.046;10.676;2023-05-19T13:24:21;22.50;72.70
11126;DHT22;5617;54.046;10.676;2023-05-19T13:26:29;22.50;71.10
11126;DHT22;5617;54.046;10.676;2023-05-19T13:28:36;22.50;70.20
11126;DHT22;5617;54.046;10.676;2023-05-19T13:30:46;22.60;69.70
11126;DHT22;5617;54.046;10.676;2023-05-19T13:32:56;22.50;68.30
11126;DHT22;5617;54.046;10.676;2023-05-19T13:35:05;22.70;68.80
11126;DHT22;5617;54.046;10.676;2023-05-19T13:37:13;22.90;69.70
11126;DHT22;5617;54.046;10.676;2023-05-19T13:39:20;22.90;67.20
11126;DHT22;5617;54.046;10.676;2023-05-19T13:41:28;22.80;67.10
11126;DHT22;5617;54.046;10.676;2023-05-19T13:43:36;23.00;68.80
11126;DHT22;5617;54.046;10.676;2023-05-19T13:45:43;22.80;69.30